createdAt,value
2023-09-23T00:02:26.242Z,100.00
2023-09-23T00:04:53.073Z,100.00
2023-09-23T00:07:19.792Z,100.00
2023-09-23T00:09:46.442Z,100.00
2023-09-23T00:12:13.688Z,100.00
2023-09-23T00:14:40.278Z,100.00
2023-09-23T00:17:07.466Z,100.00
2023-09-23T00:19:35.761Z,100.00
2023-09-23T00:22:03.562Z,100.00
2023-09-23T00:24:31.064Z,100.00
2023-09-23T00:27:00.917Z,100.00
2023-09-23T00:29:30.260Z,100.00
2023-09-23T00:31:58.656Z,100.00
2023-09-23T00:34:25.384Z,100.00
2023-09-23T00:36:52.478Z,100.00
2023-09-23T00:39:19.313Z,100.00
2023-09-23T00:41:46.122Z,100.00
2023-09-23T00:44:12.955Z,100.00
2023-09-23T00:46:43.738Z,100.00
2023-09-23T00:49:11.045Z,100.00
2023-09-23T00:51:38.977Z,100.00
2023-09-23T00:54:21.490Z,100.00
2023-09-23T00:56:49.250Z,100.00
2023-09-23T00:59:18.515Z,100.00
2023-09-23T01:01:49.613Z,100.00
2023-09-23T01:04:16.926Z,100.00
2023-09-23T01:06:44.650Z,100.00
2023-09-23T01:09:17.469Z,100.00
2023-09-23T01:11:44.308Z,100.00
2023-09-23T01:14:11.984Z,100.00
2023-09-23T01:16:39.395Z,100.00
2023-09-23T01:19:06.638Z,100.00
2023-09-23T01:21:33.323Z,100.00
2023-09-23T01:23:59.876Z,100.00
2023-09-23T01:26:26.705Z,100.00
2023-09-23T01:28:53.470Z,100.00
2023-09-23T01:31:23.674Z,100.00
2023-09-23T01:33:51.872Z,100.00
2023-09-23T01:36:18.908Z,100.00
2023-09-23T01:38:45.663Z,100.00
2023-09-23T01:41:12.602Z,100.00
2023-09-23T01:43:39.298Z,100.00
2023-09-23T01:46:07.930Z,100.00
2023-09-23T01:48:34.892Z,100.00
2023-09-23T01:51:01.720Z,100.00
2023-09-23T01:53:29.148Z,100.00
2023-09-23T01:55:56.138Z,100.00
2023-09-23T01:58:23.886Z,100.00
2023-09-23T02:00:53.177Z,100.00
2023-09-23T02:03:29.361Z,100.00
2023-09-23T02:05:56.979Z,100.00
2023-09-23T02:08:23.658Z,100.00
2023-09-23T02:10:50.531Z,100.00
2023-09-23T02:13:17.920Z,100.00
2023-09-23T02:15:46.823Z,100.00
2023-09-23T02:18:15.458Z,100.00
2023-09-23T02:20:42.395Z,100.00
2023-09-23T02:23:10.182Z,100.00
2023-09-23T02:25:38.544Z,100.00
2023-09-23T02:28:05.322Z,100.00
2023-09-23T02:30:33.756Z,100.00
2023-09-23T02:33:00.520Z,100.00
2023-09-23T02:35:27.273Z,100.00
2023-09-23T02:37:54.527Z,100.00
2023-09-23T02:40:21.745Z,100.00
2023-09-23T02:42:52.839Z,100.00
2023-09-23T02:45:21.718Z,100.00
2023-09-23T02:47:48.462Z,100.00
2023-09-23T02:50:15.687Z,100.00
2023-09-23T02:52:45.794Z,100.00
2023-09-23T02:55:14.180Z,100.00
2023-09-23T02:57:42.583Z,100.00
2023-09-23T03:00:21.591Z,100.00
2023-09-23T03:02:56.213Z,100.00
2023-09-23T03:05:28.518Z,100.00
2023-09-23T03:08:00.043Z,100.00
2023-09-23T03:10:41.270Z,100.00
2023-09-23T03:13:09.101Z,100.00
2023-09-23T03:15:51.670Z,100.00
2023-09-23T03:18:35.180Z,100.00
2023-09-23T03:21:09.947Z,100.00
2023-09-23T03:23:41.115Z,100.00
2023-09-23T03:26:09.931Z,100.00
2023-09-23T03:28:38.084Z,100.00
2023-09-23T03:31:06.557Z,100.00
2023-09-23T03:33:34.785Z,100.00
2023-09-23T03:36:01.519Z,100.00
2023-09-23T03:38:30.462Z,100.00
2023-09-23T03:41:03.445Z,100.00
2023-09-23T03:43:30.508Z,100.00
2023-09-23T03:45:57.452Z,100.00
2023-09-23T03:48:24.164Z,100.00
2023-09-23T03:50:54.922Z,100.00
2023-09-23T03:53:22.920Z,100.00
2023-09-23T03:55:50.970Z,100.00
2023-09-23T03:58:20.649Z,100.00
2023-09-23T04:00:48.499Z,100.00
2023-09-23T04:03:28.793Z,100.00
2023-09-23T04:05:58.777Z,100.00
2023-09-23T04:08:25.882Z,100.00
2023-09-23T04:10:52.542Z,100.00
2023-09-23T04:13:19.744Z,100.00
2023-09-23T04:15:46.372Z,100.00
2023-09-23T04:18:12.905Z,100.00
2023-09-23T04:20:39.501Z,100.00
2023-09-23T04:23:06.189Z,100.00
2023-09-23T04:25:32.705Z,100.00
2023-09-23T04:27:59.341Z,100.00
2023-09-23T04:30:26.408Z,100.00
2023-09-23T04:32:53.052Z,100.00
2023-09-23T04:35:19.752Z,100.00
2023-09-23T04:37:46.518Z,100.00
2023-09-23T04:40:13.877Z,100.00
2023-09-23T04:42:44.795Z,100.00
2023-09-23T04:45:12.640Z,100.00
2023-09-23T04:47:41.311Z,100.00
2023-09-23T04:50:13.888Z,100.00
2023-09-23T04:52:42.262Z,100.00
2023-09-23T04:55:09.295Z,100.00
2023-09-23T04:57:37.122Z,100.00
2023-09-23T05:00:05.962Z,100.00
2023-09-23T05:02:32.952Z,100.00
2023-09-23T05:04:59.960Z,100.00
2023-09-23T05:07:27.001Z,100.00
2023-09-23T05:09:56.763Z,100.00
2023-09-23T05:12:24.913Z,100.00
2023-09-23T05:14:54.065Z,100.00
2023-09-23T05:17:22.608Z,100.00
2023-09-23T05:19:49.426Z,100.00
2023-09-23T05:22:16.453Z,100.00
2023-09-23T05:24:46.767Z,100.00
2023-09-23T05:27:13.368Z,100.00
2023-09-23T05:29:39.926Z,100.00
2023-09-23T05:32:06.611Z,100.00
2023-09-23T05:34:33.824Z,100.00
2023-09-23T05:37:00.477Z,100.00
2023-09-23T05:39:27.096Z,100.00
2023-09-23T05:41:54.872Z,100.00
2023-09-23T05:44:21.555Z,100.00
2023-09-23T05:46:49.679Z,100.00
2023-09-23T05:49:16.567Z,100.00
2023-09-23T05:51:44.302Z,100.00
2023-09-23T05:54:11.012Z,100.00
2023-09-23T05:56:37.570Z,100.00
2023-09-23T05:59:04.625Z,100.00
2023-09-23T06:01:31.295Z,100.00
2023-09-23T06:03:59.241Z,100.00
2023-09-23T06:06:25.982Z,100.00
2023-09-23T06:08:52.603Z,100.00
2023-09-23T06:11:19.350Z,100.00
2023-09-23T06:13:46.333Z,100.00
2023-09-23T06:16:13.240Z,100.00
2023-09-23T06:18:39.862Z,100.00
2023-09-23T06:21:07.869Z,100.00
2023-09-23T06:23:34.689Z,100.00
2023-09-23T06:26:03.807Z,100.00
2023-09-23T06:28:30.992Z,100.00
2023-09-23T06:30:57.985Z,100.00
2023-09-23T06:33:24.887Z,100.00
2023-09-23T06:35:51.734Z,100.00
2023-09-23T06:38:18.559Z,100.00
2023-09-23T06:40:45.220Z,100.00
2023-09-23T06:43:13.355Z,100.00
2023-09-23T06:45:40.387Z,100.00
2023-09-23T06:48:07.296Z,100.00
2023-09-23T06:50:34.177Z,100.00
2023-09-23T06:53:01.983Z,100.00
2023-09-23T06:55:28.735Z,100.00
2023-09-23T06:57:55.694Z,100.00
2023-09-23T07:00:22.569Z,100.00
2023-09-23T07:02:49.735Z,100.00
2023-09-23T07:05:16.825Z,100.00
2023-09-23T07:07:43.566Z,100.00
2023-09-23T07:10:11.120Z,100.00
2023-09-23T07:12:37.763Z,100.00
2023-09-23T07:15:04.705Z,100.00
2023-09-23T07:17:31.469Z,100.00
2023-09-23T07:19:58.285Z,100.00
2023-09-23T07:22:25.141Z,100.00
2023-09-23T07:24:51.882Z,100.00
2023-09-23T07:27:18.423Z,100.00
2023-09-23T07:29:45.063Z,100.00
2023-09-23T07:32:11.750Z,100.00
2023-09-23T07:34:38.550Z,100.00
2023-09-23T07:37:07.850Z,100.00
2023-09-23T07:39:34.562Z,100.00
2023-09-23T07:42:01.080Z,100.00
2023-09-23T07:44:27.720Z,100.00
2023-09-23T07:46:54.271Z,100.00
2023-09-23T07:49:20.964Z,100.00
2023-09-23T07:51:47.875Z,100.00
2023-09-23T07:54:14.629Z,100.00
2023-09-23T07:56:41.626Z,100.00
2023-09-23T07:59:08.339Z,100.00
2023-09-23T08:01:34.995Z,100.00
2023-09-23T08:04:01.751Z,100.00
2023-09-23T08:06:28.337Z,100.00
2023-09-23T08:08:54.982Z,100.00
2023-09-23T08:11:21.497Z,100.00
2023-09-23T08:13:48.332Z,100.00
2023-09-23T08:16:15.148Z,100.00
2023-09-23T08:18:42.179Z,100.00
2023-09-23T08:21:08.785Z,100.00
2023-09-23T08:23:35.511Z,100.00
2023-09-23T08:26:02.256Z,100.00
2023-09-23T08:28:28.916Z,100.00
2023-09-23T08:30:55.483Z,100.00
2023-09-23T08:33:22.459Z,100.00
2023-09-23T08:35:49.330Z,100.00
2023-09-23T08:38:16.460Z,100.00
2023-09-23T08:40:45.445Z,100.00
2023-09-23T08:43:12.357Z,100.00
2023-09-23T08:45:45.710Z,100.00
2023-09-23T08:48:14.123Z,100.00
2023-09-23T08:50:45.394Z,100.00
2023-09-23T08:53:14.760Z,100.00
2023-09-23T08:55:43.458Z,100.00
2023-09-23T08:58:10.109Z,100.00
2023-09-23T09:00:36.699Z,100.00
2023-09-23T09:03:03.694Z,100.00
2023-09-23T09:05:40.984Z,100.00
2023-09-23T09:08:08.366Z,100.00
2023-09-23T09:10:35.270Z,100.00
2023-09-23T09:13:06.962Z,100.00
2023-09-23T09:15:37.781Z,100.00
2023-09-23T09:18:05.486Z,100.00
2023-09-23T09:20:33.202Z,100.00
2023-09-23T09:22:59.922Z,100.00
2023-09-23T09:25:26.845Z,100.00
2023-09-23T09:27:53.732Z,100.00
2023-09-23T09:30:20.845Z,100.00
2023-09-23T09:32:48.908Z,100.00
2023-09-23T09:35:19.610Z,100.00
2023-09-23T09:37:47.739Z,100.00
2023-09-23T09:40:24.127Z,100.00
2023-09-23T09:42:55.322Z,100.00
2023-09-23T09:45:23.725Z,100.00
2023-09-23T09:47:54.583Z,100.00
2023-09-23T09:50:24.448Z,100.00
2023-09-23T09:52:51.154Z,100.00
2023-09-23T09:55:20.117Z,100.00
2023-09-23T09:57:53.421Z,100.00
2023-09-23T10:00:32.210Z,100.00
2023-09-23T10:03:03.293Z,100.00
2023-09-23T10:05:42.092Z,100.00
2023-09-23T10:08:14.524Z,100.00
2023-09-23T10:10:49.156Z,100.00
2023-09-23T10:13:16.717Z,100.00
2023-09-23T10:15:44.456Z,100.00
2023-09-23T10:18:13.335Z,100.00
2023-09-23T10:20:49.537Z,100.00
2023-09-23T10:23:18.415Z,98.21
2023-09-23T10:25:45.396Z,100.00
2023-09-23T10:28:32.231Z,100.00
2023-09-23T10:31:00.952Z,96.27
2023-09-23T10:33:28.658Z,97.59
2023-09-23T10:35:55.824Z,97.92
2023-09-23T10:38:26.404Z,99.78
2023-09-23T10:40:54.999Z,98.23
2023-09-23T10:43:25.097Z,98.84
2023-09-23T10:45:58.041Z,99.37
2023-09-23T10:48:26.110Z,96.43
2023-09-23T10:50:53.178Z,95.73
2023-09-23T10:53:22.858Z,95.70
2023-09-23T10:55:53.064Z,92.73
2023-09-23T10:58:20.419Z,93.86
2023-09-23T11:00:47.835Z,95.84
2023-09-23T11:03:20.812Z,90.42
2023-09-23T11:05:49.001Z,93.29
2023-09-23T11:08:19.589Z,93.69
2023-09-23T11:10:49.110Z,90.99
2023-09-23T11:13:17.144Z,89.13
2023-09-23T11:15:46.587Z,88.30
2023-09-23T11:18:15.861Z,89.68
2023-09-23T11:20:44.498Z,89.69
2023-09-23T11:23:11.572Z,92.60
2023-09-23T11:25:42.896Z,92.90
2023-09-23T11:28:21.026Z,92.02
2023-09-23T11:30:48.981Z,96.09
2023-09-23T11:33:15.852Z,95.58
2023-09-23T11:35:43.365Z,96.96
2023-09-23T11:38:11.091Z,94.23
2023-09-23T11:40:38.989Z,94.81
2023-09-23T11:43:06.004Z,92.26
2023-09-23T11:45:36.072Z,92.32
2023-09-23T11:48:05.257Z,90.56
2023-09-23T11:50:32.101Z,89.52
2023-09-23T11:52:58.790Z,90.30
2023-09-23T11:55:27.049Z,91.38
2023-09-23T11:57:55.288Z,92.89
2023-09-23T12:00:22.024Z,89.48
2023-09-23T12:02:49.448Z,86.02
2023-09-23T12:05:18.306Z,85.79
2023-09-23T12:07:45.661Z,86.85
2023-09-23T12:10:14.928Z,89.28
2023-09-23T12:12:44.020Z,88.20
2023-09-23T12:15:11.158Z,90.69
2023-09-23T12:17:39.018Z,89.05
2023-09-23T12:20:12.881Z,88.18
2023-09-23T12:22:40.150Z,88.66
2023-09-23T12:25:07.807Z,88.95
2023-09-23T12:27:35.135Z,88.07
2023-09-23T12:30:02.061Z,86.11
2023-09-23T12:32:29.225Z,85.32
2023-09-23T12:34:56.018Z,80.35
2023-09-23T12:37:22.720Z,84.31
2023-09-23T12:39:49.333Z,80.74
2023-09-23T12:42:16.265Z,81.06
2023-09-23T12:44:43.311Z,84.84
2023-09-23T12:47:10.201Z,82.42
2023-09-23T12:49:38.085Z,81.36
2023-09-23T12:52:06.229Z,81.05
2023-09-23T12:54:33.358Z,80.87
2023-09-23T12:56:59.950Z,78.83
2023-09-23T12:59:26.652Z,83.04
2023-09-23T13:01:53.354Z,83.23
2023-09-23T13:04:19.969Z,86.07
2023-09-23T13:06:46.614Z,84.85
2023-09-23T13:09:13.293Z,83.79
2023-09-23T13:11:40.306Z,76.98
2023-09-23T13:14:08.579Z,76.26
2023-09-23T13:16:35.377Z,76.64
2023-09-23T13:19:02.108Z,78.30
2023-09-23T13:21:28.858Z,75.86
2023-09-23T13:23:55.502Z,76.71
2023-09-23T13:26:22.294Z,75.70
2023-09-23T13:28:49.351Z,73.81
2023-09-23T13:31:16.328Z,74.28
2023-09-23T13:33:43.572Z,74.95
2023-09-23T13:36:10.397Z,75.13
2023-09-23T13:38:37.126Z,76.40
2023-09-23T13:41:05.572Z,75.98
2023-09-23T13:43:32.252Z,74.84
2023-09-23T13:45:59.278Z,74.25
2023-09-23T13:48:26.071Z,73.13
2023-09-23T13:50:52.878Z,73.82
2023-09-23T13:53:21.705Z,71.55
2023-09-23T13:55:48.430Z,70.84
2023-09-23T13:58:15.812Z,74.07
2023-09-23T14:00:42.493Z,74.86
2023-09-23T14:03:09.509Z,72.38
2023-09-23T14:05:36.274Z,71.08
2023-09-23T14:08:03.143Z,71.08
2023-09-23T14:10:30.247Z,72.66
2023-09-23T14:12:57.146Z,72.29
2023-09-23T14:15:23.992Z,74.54
2023-09-23T14:17:50.767Z,75.97
2023-09-23T14:20:17.550Z,74.08
2023-09-23T14:22:46.912Z,74.89
2023-09-23T14:25:15.286Z,75.12
2023-09-23T14:27:42.437Z,74.91
2023-09-23T14:30:09.619Z,75.48
2023-09-23T14:32:36.978Z,74.32
2023-09-23T14:35:04.223Z,75.91
2023-09-23T14:37:33.661Z,74.04
2023-09-23T14:40:01.405Z,75.30
2023-09-23T14:42:28.481Z,75.82
2023-09-23T14:44:55.224Z,77.55
2023-09-23T14:47:22.285Z,75.69
2023-09-23T14:49:49.024Z,77.41
2023-09-23T14:52:15.695Z,77.33
2023-09-23T14:54:42.932Z,77.47
2023-09-23T14:57:09.806Z,76.21
2023-09-23T14:59:37.029Z,78.88
2023-09-23T15:02:04.356Z,73.99
2023-09-23T15:04:31.969Z,79.33
2023-09-23T15:07:00.687Z,76.80
2023-09-23T15:09:28.021Z,77.19
2023-09-23T15:11:54.961Z,78.41
2023-09-23T15:14:21.721Z,76.81
2023-09-23T15:16:50.796Z,79.94
2023-09-23T15:19:20.293Z,74.45
2023-09-23T15:21:47.655Z,75.59
2023-09-23T15:24:18.393Z,75.79
2023-09-23T15:26:45.277Z,80.63
2023-09-23T15:29:12.330Z,75.42
2023-09-23T15:31:39.016Z,77.20
2023-09-23T15:34:06.481Z,76.12
2023-09-23T15:36:33.860Z,79.78
2023-09-23T15:39:00.534Z,77.81
2023-09-23T15:41:27.242Z,80.43
2023-09-23T15:43:54.249Z,77.71
2023-09-23T15:46:21.198Z,77.93
2023-09-23T15:48:48.365Z,80.07
2023-09-23T15:51:20.765Z,79.86
2023-09-23T15:53:47.682Z,79.18
2023-09-23T15:56:14.607Z,78.97
2023-09-23T15:58:41.324Z,78.67
2023-09-23T16:01:08.323Z,82.11
2023-09-23T16:03:35.672Z,82.63
2023-09-23T16:06:03.081Z,80.06
2023-09-23T16:08:30.006Z,80.26
2023-09-23T16:10:56.747Z,81.41
2023-09-23T16:13:23.425Z,81.32
2023-09-23T16:15:50.408Z,82.17
2023-09-23T16:18:19.295Z,81.41
2023-09-23T16:20:47.789Z,81.32
2023-09-23T16:23:14.494Z,82.05
2023-09-23T16:25:41.134Z,83.27
2023-09-23T16:28:08.202Z,83.74
2023-09-23T16:30:34.956Z,82.33
2023-09-23T16:33:01.668Z,82.75
2023-09-23T16:35:28.428Z,81.62
2023-09-23T16:37:55.060Z,82.57
2023-09-23T16:40:22.567Z,84.26
2023-09-23T16:42:49.217Z,85.67
2023-09-23T16:45:16.112Z,86.84
2023-09-23T16:47:42.834Z,84.85
2023-09-23T16:50:10.022Z,87.52
2023-09-23T16:52:36.759Z,88.28
2023-09-23T16:55:03.631Z,89.30
2023-09-23T16:57:30.336Z,89.00
2023-09-23T16:59:58.414Z,91.75
2023-09-23T17:02:25.175Z,90.63
2023-09-23T17:04:52.391Z,94.05
2023-09-23T17:07:19.583Z,92.16
2023-09-23T17:09:46.478Z,93.76
2023-09-23T17:12:14.012Z,91.51
2023-09-23T17:14:41.042Z,98.92
2023-09-23T17:17:08.491Z,96.71
2023-09-23T17:19:35.519Z,97.77
2023-09-23T17:22:02.251Z,95.44
2023-09-23T17:24:30.494Z,96.99
2023-09-23T17:26:57.582Z,97.66
2023-09-23T17:29:24.502Z,99.68
2023-09-23T17:31:51.392Z,100.00
2023-09-23T17:34:18.174Z,100.00
2023-09-23T17:36:44.935Z,100.00
2023-09-23T17:39:12.076Z,100.00
2023-09-23T17:41:39.282Z,100.00
2023-09-23T17:44:06.939Z,100.00
2023-09-23T17:46:34.215Z,100.00
2023-09-23T17:49:00.930Z,100.00
2023-09-23T17:51:27.858Z,100.00
2023-09-23T17:53:54.603Z,100.00
2023-09-23T17:56:23.222Z,100.00
2023-09-23T17:58:50.297Z,100.00
2023-09-23T18:01:17.226Z,100.00
2023-09-23T18:03:44.152Z,100.00
2023-09-23T18:06:11.100Z,100.00
2023-09-23T18:08:37.809Z,100.00
2023-09-23T18:11:04.506Z,100.00
2023-09-23T18:13:32.765Z,100.00
2023-09-23T18:15:59.409Z,100.00
2023-09-23T18:18:27.989Z,100.00
2023-09-23T18:20:55.927Z,100.00
2023-09-23T18:23:23.027Z,100.00
2023-09-23T18:25:49.947Z,100.00
2023-09-23T18:28:16.647Z,100.00
2023-09-23T18:30:43.207Z,100.00
2023-09-23T18:33:10.073Z,100.00
2023-09-23T18:35:36.962Z,100.00
2023-09-23T18:38:04.111Z,100.00
2023-09-23T18:40:31.359Z,100.00
2023-09-23T18:42:58.043Z,100.00
2023-09-23T18:45:24.590Z,100.00
2023-09-23T18:48:00.531Z,100.00
2023-09-23T18:50:38.175Z,100.00
2023-09-23T18:53:05.062Z,100.00
2023-09-23T18:55:31.695Z,100.00
2023-09-23T18:57:58.557Z,100.00
2023-09-23T19:00:25.459Z,100.00
2023-09-23T19:02:52.203Z,100.00
2023-09-23T19:05:19.102Z,100.00
2023-09-23T19:07:45.859Z,100.00
2023-09-23T19:10:13.815Z,100.00
2023-09-23T19:12:40.459Z,100.00
2023-09-23T19:15:07.403Z,100.00
2023-09-23T19:17:34.989Z,100.00
2023-09-23T19:20:01.990Z,100.00
2023-09-23T19:22:28.883Z,100.00
2023-09-23T19:24:55.728Z,100.00
2023-09-23T19:27:22.383Z,100.00
2023-09-23T19:29:51.029Z,100.00
2023-09-23T19:32:17.934Z,100.00
2023-09-23T19:34:45.093Z,100.00
2023-09-23T19:37:11.918Z,100.00
2023-09-23T19:39:38.696Z,100.00
2023-09-23T19:42:05.484Z,100.00
2023-09-23T19:44:33.025Z,100.00
2023-09-23T19:47:02.048Z,100.00
2023-09-23T19:49:29.201Z,100.00
2023-09-23T19:51:56.443Z,100.00
2023-09-23T19:54:27.322Z,100.00
2023-09-23T19:56:54.629Z,100.00
2023-09-23T19:59:21.281Z,100.00
2023-09-23T20:01:48.323Z,100.00
2023-09-23T20:04:15.346Z,100.00
2023-09-23T20:06:43.226Z,100.00
2023-09-23T20:09:10.540Z,100.00
2023-09-23T20:11:37.507Z,100.00
2023-09-23T20:14:04.707Z,100.00
2023-09-23T20:16:33.032Z,100.00
2023-09-23T20:19:00.352Z,100.00
2023-09-23T20:21:28.587Z,100.00
2023-09-23T20:23:55.345Z,100.00
2023-09-23T20:26:22.028Z,100.00
2023-09-23T20:28:49.306Z,100.00
2023-09-23T20:31:16.815Z,100.00
2023-09-23T20:33:44.076Z,100.00
2023-09-23T20:36:10.946Z,100.00
2023-09-23T20:38:40.229Z,100.00
2023-09-23T20:41:10.725Z,100.00
2023-09-23T20:43:39.167Z,100.00
2023-09-23T20:46:11.328Z,100.00
2023-09-23T20:48:38.144Z,100.00
2023-09-23T20:51:05.157Z,100.00
2023-09-23T20:53:35.786Z,100.00
2023-09-23T20:56:06.721Z,100.00
2023-09-23T20:58:34.483Z,100.00
2023-09-23T21:01:01.862Z,100.00
2023-09-23T21:03:28.737Z,100.00
2023-09-23T21:05:55.724Z,100.00
2023-09-23T21:08:22.750Z,100.00
2023-09-23T21:10:49.426Z,100.00
2023-09-23T21:13:16.061Z,100.00
2023-09-23T21:15:42.883Z,100.00
2023-09-23T21:18:10.788Z,100.00
2023-09-23T21:20:38.457Z,100.00
2023-09-23T21:23:05.471Z,100.00
2023-09-23T21:25:32.467Z,100.00
2023-09-23T21:27:59.358Z,100.00
2023-09-23T21:30:26.064Z,100.00
2023-09-23T21:32:52.766Z,100.00
2023-09-23T21:35:19.655Z,100.00
2023-09-23T21:37:46.248Z,100.00
2023-09-23T21:40:13.165Z,100.00
2023-09-23T21:42:39.819Z,100.00
2023-09-23T21:45:06.775Z,100.00
2023-09-23T21:47:33.495Z,100.00
2023-09-23T21:50:00.183Z,100.00
2023-09-23T21:52:27.267Z,100.00
2023-09-23T21:54:53.958Z,100.00
2023-09-23T21:57:20.733Z,100.00
2023-09-23T21:59:47.331Z,100.00
2023-09-23T22:02:14.496Z,100.00
2023-09-23T22:04:41.690Z,100.00
2023-09-23T22:07:08.778Z,100.00
2023-09-23T22:09:35.537Z,100.00
2023-09-23T22:12:02.397Z,100.00
2023-09-23T22:14:29.214Z,100.00
2023-09-23T22:16:56.140Z,100.00
2023-09-23T22:19:24.004Z,100.00
2023-09-23T22:21:52.703Z,100.00
2023-09-23T22:24:22.457Z,100.00
2023-09-23T22:26:54.576Z,100.00
2023-09-23T22:29:21.810Z,100.00
2023-09-23T22:31:51.261Z,100.00
2023-09-23T22:34:19.264Z,100.00
2023-09-23T22:36:46.506Z,100.00
2023-09-23T22:39:14.128Z,100.00
2023-09-23T22:41:41.359Z,100.00
2023-09-23T22:44:08.554Z,100.00
2023-09-23T22:46:36.902Z,100.00
2023-09-23T22:49:03.999Z,100.00
2023-09-23T22:51:31.869Z,100.00
2023-09-23T22:53:59.072Z,100.00
2023-09-23T22:56:26.707Z,100.00
2023-09-23T22:58:53.365Z,100.00
2023-09-23T23:01:20.456Z,100.00
2023-09-23T23:03:58.196Z,100.00
2023-09-23T23:06:24.949Z,100.00
2023-09-23T23:08:54.289Z,100.00
2023-09-23T23:11:21.807Z,100.00
2023-09-23T23:13:49.477Z,100.00
2023-09-23T23:16:19.747Z,100.00
2023-09-23T23:18:46.473Z,100.00
2023-09-23T23:21:13.064Z,100.00
2023-09-23T23:23:39.790Z,100.00
2023-09-23T23:26:07.456Z,100.00
2023-09-23T23:28:37.606Z,100.00
2023-09-23T23:31:05.675Z,100.00
2023-09-23T23:33:32.751Z,100.00
2023-09-23T23:36:00.337Z,100.00
2023-09-23T23:38:28.203Z,100.00
2023-09-23T23:40:55.349Z,100.00
2023-09-23T23:43:25.809Z,100.00
2023-09-23T23:46:03.080Z,100.00
2023-09-23T23:48:30.950Z,100.00
2023-09-23T23:51:10.589Z,100.00
2023-09-23T23:53:37.304Z,100.00
2023-09-23T23:56:10.376Z,100.00
2023-09-23T23:58:40.074Z,100.00
